createdAt,value
2022-08-04T00:00:15.847Z,22.70
2022-08-04T00:01:12.559Z,22.80
2022-08-04T00:01:51.857Z,22.70
2022-08-04T00:03:19.223Z,22.80
2022-08-04T00:04:01.835Z,22.80
2022-08-04T00:04:53.288Z,22.70
2022-08-04T00:05:58.604Z,22.70
2022-08-04T00:07:42.498Z,22.70
2022-08-04T00:08:48.594Z,22.60
2022-08-04T00:09:37.051Z,22.60
2022-08-04T00:10:09.486Z,22.60
2022-08-04T00:10:55.252Z,22.50
2022-08-04T00:11:31.314Z,22.60
2022-08-04T00:12:05.751Z,22.60
2022-08-04T00:12:43.066Z,22.60
2022-08-04T00:13:22.115Z,22.60
2022-08-04T00:14:04.784Z,22.60
2022-08-04T00:14:41.651Z,22.50
2022-08-04T00:15:57.012Z,22.60
2022-08-04T00:18:23.535Z,22.50
2022-08-04T00:19:01.337Z,22.60
2022-08-04T00:19:40.469Z,22.60
2022-08-04T00:20:56.789Z,22.60
2022-08-04T00:21:29.451Z,22.60
2022-08-04T00:22:04.478Z,22.60
2022-08-04T00:22:41.837Z,22.50
2022-08-04T00:23:16.495Z,23.00
2022-08-04T00:24:12.336Z,22.50
2022-08-04T00:24:44.528Z,22.50
2022-08-04T00:25:16.847Z,22.50
2022-08-04T00:26:22.430Z,22.50
2022-08-04T00:26:58.546Z,22.40
2022-08-04T00:27:30.917Z,22.40
2022-08-04T00:28:02.738Z,22.40
2022-08-04T00:28:37.314Z,22.40
2022-08-04T00:29:09.291Z,22.40
2022-08-04T00:30:13.644Z,22.40
2022-08-04T00:31:56.933Z,22.40
2022-08-04T00:32:34.450Z,22.50
2022-08-04T00:33:07.886Z,22.40
2022-08-04T00:33:40.447Z,22.50
2022-08-04T00:34:48.619Z,22.40
2022-08-04T00:45:10.559Z,22.50
2022-08-04T00:46:15.436Z,22.40
2022-08-04T00:48:42.375Z,22.40
2022-08-04T00:49:28.982Z,22.40
2022-08-04T00:50:24.602Z,22.40
2022-08-04T00:51:34.696Z,22.30
2022-08-04T00:52:31.964Z,22.20
2022-08-04T00:53:52.600Z,22.30
2022-08-04T00:54:41.873Z,22.30
2022-08-04T00:58:35.820Z,22.40
2022-08-04T00:59:51.304Z,22.30
2022-08-04T01:00:23.777Z,22.20
2022-08-04T01:01:00.799Z,22.20
2022-08-04T01:02:00.506Z,22.10
2022-08-04T01:02:39.915Z,22.20
2022-08-04T01:03:32.905Z,22.10
2022-08-04T01:04:23.274Z,22.20
2022-08-04T01:05:05.834Z,22.10
2022-08-04T01:06:02.197Z,22.10
2022-08-04T01:06:59.984Z,22.10
2022-08-04T01:08:26.860Z,22.10
2022-08-04T01:10:12.088Z,22.10
2022-08-04T01:11:08.319Z,22.00
2022-08-04T01:11:57.019Z,22.00
2022-08-04T01:13:15.417Z,22.00
2022-08-04T01:13:58.993Z,21.90
2022-08-04T01:14:56.236Z,25.50
2022-08-04T01:16:00.178Z,22.00
2022-08-04T01:16:44.376Z,22.00
2022-08-04T01:17:28.464Z,22.00
2022-08-04T01:18:09.050Z,22.00
2022-08-04T01:18:58.975Z,22.00
2022-08-04T01:19:52.234Z,22.00
2022-08-04T01:20:26.266Z,22.00
2022-08-04T01:21:25.299Z,22.00
2022-08-04T01:22:21.391Z,22.00
2022-08-04T01:23:27.260Z,21.90
2022-08-04T01:25:22.667Z,21.90
2022-08-04T01:26:42.511Z,22.00
2022-08-04T01:28:03.398Z,21.90
2022-08-04T01:28:56.882Z,21.80
2022-08-04T01:29:43.794Z,21.90
2022-08-04T01:30:19.105Z,21.90
2022-08-04T01:30:58.228Z,21.90
2022-08-04T01:32:12.649Z,21.90
2022-08-04T01:32:58.667Z,21.80
2022-08-04T01:34:03.600Z,21.90
2022-08-04T01:35:22.043Z,21.90
2022-08-04T01:36:11.826Z,21.90
2022-08-04T01:36:49.920Z,21.80
2022-08-04T01:37:40.632Z,21.90
2022-08-04T01:38:20.991Z,21.90
2022-08-04T01:38:55.184Z,21.70
2022-08-04T01:39:41.166Z,22.70
2022-08-04T01:40:15.075Z,21.90
2022-08-04T01:40:49.149Z,21.80
2022-08-04T01:41:32.282Z,21.80
2022-08-04T01:42:05.816Z,21.80
2022-08-04T01:42:43.489Z,21.80
2022-08-04T01:43:17.151Z,21.60
2022-08-04T01:44:23.627Z,21.80
2022-08-04T01:44:57.831Z,21.60
2022-08-04T01:45:31.698Z,21.80
2022-08-04T01:46:05.205Z,21.70
2022-08-04T01:46:40.346Z,22.80
2022-08-04T01:47:14.430Z,21.80
2022-08-04T01:47:53.131Z,21.70
2022-08-04T01:48:27.091Z,21.70
2022-08-04T01:49:02.629Z,21.80
2022-08-04T01:49:40.285Z,21.70
2022-08-04T01:50:14.157Z,21.90
2022-08-04T01:50:46.665Z,21.80
2022-08-04T01:51:25.581Z,21.80
2022-08-04T01:51:58.154Z,21.80
2022-08-04T01:52:32.387Z,21.70
2022-08-04T01:53:05.134Z,21.70
2022-08-04T01:53:40.354Z,22.80
2022-08-04T01:54:17.579Z,21.70
2022-08-04T01:54:51.235Z,21.70
2022-08-04T01:55:23.552Z,21.70
2022-08-04T01:55:57.770Z,21.60
2022-08-04T01:56:31.425Z,21.70
2022-08-04T01:57:38.178Z,21.70
2022-08-04T01:58:00.632Z,21.60
2022-08-04T01:58:35.309Z,21.70
2022-08-04T01:59:08.631Z,21.70
2022-08-04T01:59:45.568Z,21.50
2022-08-04T02:00:22.861Z,21.60
2022-08-04T02:01:04.867Z,22.80
2022-08-04T02:01:40.258Z,21.70
2022-08-04T02:02:12.353Z,21.60
2022-08-04T02:02:46.144Z,25.50
2022-08-04T02:03:18.108Z,21.60
2022-08-04T02:04:21.658Z,21.60
2022-08-04T02:04:42.157Z,21.60
2022-08-04T02:05:19.297Z,21.60
2022-08-04T02:06:04.433Z,21.70
2022-08-04T02:06:41.385Z,21.60
2022-08-04T02:07:43.271Z,21.60
2022-08-04T02:08:35.150Z,21.60
2022-08-04T02:09:28.770Z,19.10
2022-08-04T02:10:26.975Z,21.50
2022-08-04T02:11:11.776Z,21.80
2022-08-04T02:11:58.848Z,22.40
2022-08-04T02:13:00.420Z,21.50
2022-08-04T02:14:01.898Z,21.50
2022-08-04T02:14:50.946Z,21.60
2022-08-04T02:15:34.233Z,21.60
2022-08-04T02:16:16.100Z,21.50
2022-08-04T02:16:53.119Z,21.50
2022-08-04T02:17:43.323Z,21.60
2022-08-04T02:18:20.924Z,21.60
2022-08-04T02:19:19.443Z,21.50
2022-08-04T02:20:23.054Z,21.50
2022-08-04T02:21:16.655Z,21.60
2022-08-04T02:21:57.210Z,21.40
2022-08-04T02:22:33.088Z,21.50
2022-08-04T02:23:15.593Z,21.50
2022-08-04T02:23:55.819Z,21.50
2022-08-04T02:24:29.829Z,21.50
2022-08-04T02:25:11.362Z,21.50
2022-08-04T02:26:02.110Z,21.50
2022-08-04T02:26:36.432Z,21.50
2022-08-04T02:27:10.428Z,21.40
2022-08-04T02:28:13.426Z,21.50
2022-08-04T02:29:00.973Z,21.40
2022-08-04T02:29:48.617Z,21.40
2022-08-04T02:30:22.078Z,21.40
2022-08-04T02:31:21.748Z,21.50
2022-08-04T02:32:03.382Z,21.60
2022-08-04T02:32:41.544Z,21.40
2022-08-04T02:33:21.673Z,21.40
2022-08-04T02:34:28.042Z,21.40
2022-08-04T02:35:23.201Z,21.40
2022-08-04T02:36:02.416Z,21.40
2022-08-04T02:36:40.414Z,21.40
2022-08-04T02:37:12.931Z,21.40
2022-08-04T02:37:49.102Z,21.50
2022-08-04T02:38:51.427Z,21.40
2022-08-04T02:39:23.988Z,21.40
2022-08-04T02:40:01.412Z,21.50
2022-08-04T02:40:33.730Z,20.80
2022-08-04T02:41:07.760Z,21.40
2022-08-04T02:41:40.753Z,21.40
2022-08-04T02:42:14.989Z,21.40
2022-08-04T02:42:47.213Z,23.50
2022-08-04T02:43:50.257Z,21.30
2022-08-04T02:44:13.243Z,21.40
2022-08-04T02:44:52.440Z,21.40
2022-08-04T02:45:27.207Z,21.30
2022-08-04T02:46:00.698Z,21.30
2022-08-04T02:46:34.562Z,21.40
2022-08-04T02:47:09.760Z,21.40
2022-08-04T02:48:23.699Z,21.40
2022-08-04T02:48:36.684Z,21.40
2022-08-04T02:49:10.330Z,21.40
2022-08-04T02:49:44.245Z,21.30
2022-08-04T02:50:28.911Z,21.30
2022-08-04T02:51:03.963Z,21.30
2022-08-04T02:51:40.771Z,21.40
2022-08-04T02:52:16.341Z,21.30
2022-08-04T02:52:51.891Z,21.30
2022-08-04T02:53:26.874Z,21.30
2022-08-04T02:54:00.040Z,21.70
2022-08-04T02:54:37.956Z,17.90
2022-08-04T02:55:13.657Z,21.10
2022-08-04T02:55:50.445Z,21.30
2022-08-04T02:56:24.514Z,21.30
2022-08-04T02:56:59.797Z,21.30
2022-08-04T02:57:33.179Z,21.30
2022-08-04T02:58:09.228Z,21.30
2022-08-04T02:58:51.562Z,21.30
2022-08-04T02:59:30.528Z,21.20
2022-08-04T03:00:14.301Z,21.20
2022-08-04T03:00:46.234Z,21.20
2022-08-04T03:01:18.263Z,21.30
2022-08-04T03:01:57.702Z,21.20
2022-08-04T03:02:56.345Z,21.20
2022-08-04T03:04:07.191Z,21.20
2022-08-04T03:05:03.354Z,21.20
2022-08-04T03:06:10.336Z,21.20
2022-08-04T03:07:03.783Z,21.20
2022-08-04T03:08:07.475Z,21.20
2022-08-04T03:09:18.383Z,21.10
2022-08-04T03:10:21.388Z,21.10
2022-08-04T03:11:23.745Z,21.10
2022-08-04T03:12:37.917Z,21.10
2022-08-04T03:13:18.480Z,21.10
2022-08-04T03:14:27.513Z,21.00
2022-08-04T03:15:07.628Z,21.10
2022-08-04T03:15:45.465Z,21.00
2022-08-04T03:16:52.307Z,21.10
2022-08-04T03:17:52.518Z,21.10
2022-08-04T03:18:47.852Z,21.10
2022-08-04T03:19:34.170Z,21.00
2022-08-04T03:20:27.059Z,22.10
2022-08-04T03:21:13.058Z,21.00
2022-08-04T03:21:53.896Z,21.10
2022-08-04T03:23:12.991Z,21.10
2022-08-04T03:24:19.868Z,21.00
2022-08-04T03:25:10.795Z,21.10
2022-08-04T03:26:10.282Z,21.00
2022-08-04T03:26:47.908Z,21.00
2022-08-04T03:27:46.985Z,21.00
2022-08-04T03:28:33.827Z,21.00
2022-08-04T03:29:38.791Z,23.60
2022-08-04T03:30:20.494Z,21.00
2022-08-04T03:31:20.709Z,20.90
2022-08-04T03:32:10.252Z,20.90
2022-08-04T03:32:44.879Z,20.80
2022-08-04T03:34:00.623Z,20.90
2022-08-04T03:35:33.441Z,20.90
2022-08-04T03:36:34.595Z,20.90
2022-08-04T03:37:18.056Z,21.00
2022-08-04T03:38:13.362Z,20.90
2022-08-04T03:38:57.570Z,20.90
2022-08-04T03:39:50.585Z,20.90
2022-08-04T03:40:28.180Z,20.90
2022-08-04T03:41:54.960Z,21.10
2022-08-04T03:42:39.097Z,21.20
2022-08-04T03:43:58.808Z,21.00
2022-08-04T03:44:40.620Z,20.90
2022-08-04T03:45:35.170Z,20.80
2022-08-04T03:46:43.154Z,20.90
2022-08-04T03:47:47.083Z,20.90
2022-08-04T03:48:57.870Z,20.80
2022-08-04T03:49:56.919Z,20.80
2022-08-04T03:50:43.845Z,20.80
2022-08-04T03:51:43.282Z,20.80
2022-08-04T03:53:05.741Z,20.70
2022-08-04T03:54:16.488Z,20.80
2022-08-04T03:54:56.894Z,20.60
2022-08-04T03:55:28.644Z,22.50
2022-08-04T03:56:26.591Z,20.80
2022-08-04T03:57:24.687Z,20.80
2022-08-04T03:58:37.934Z,18.40
2022-08-04T03:59:40.375Z,20.70
2022-08-04T04:00:25.159Z,20.80
2022-08-04T04:02:01.440Z,20.90
2022-08-04T04:03:28.666Z,20.80
2022-08-04T04:04:30.941Z,20.80
2022-08-04T04:05:59.027Z,20.70
2022-08-04T04:06:54.256Z,20.70
2022-08-04T04:08:03.930Z,20.70
2022-08-04T04:09:02.739Z,20.80
2022-08-04T04:09:57.911Z,20.70
2022-08-04T04:11:05.438Z,20.70
2022-08-04T04:12:27.018Z,20.70
2022-08-04T04:13:22.330Z,20.80
2022-08-04T04:13:56.696Z,20.70
2022-08-04T04:14:49.847Z,20.80
2022-08-04T04:15:57.702Z,20.70
2022-08-04T04:16:59.334Z,20.70
2022-08-04T04:17:37.074Z,20.60
2022-08-04T04:18:47.723Z,20.60
2022-08-04T04:19:46.642Z,20.60
2022-08-04T04:20:38.890Z,20.70
2022-08-04T04:21:27.380Z,20.70
2022-08-04T04:22:28.493Z,20.50
2022-08-04T04:23:42.016Z,20.70
2022-08-04T04:24:34.101Z,22.10
2022-08-04T04:25:23.826Z,20.70
2022-08-04T04:26:20.594Z,20.70
2022-08-04T04:27:18.065Z,20.20
2022-08-04T04:28:45.247Z,20.60
2022-08-04T04:29:48.219Z,20.60
2022-08-04T04:30:45.426Z,19.80
2022-08-04T04:31:28.135Z,20.60
2022-08-04T04:32:14.681Z,20.50
2022-08-04T04:33:03.810Z,20.70
2022-08-04T09:57:09.169Z,21.80
2022-08-04T10:01:48.532Z,21.90
2022-08-04T10:43:22.027Z,23.00
2022-08-04T10:44:53.200Z,23.00
2022-08-04T10:50:12.748Z,23.10
2022-08-04T10:51:04.526Z,23.10
2022-08-04T10:52:13.898Z,23.10
2022-08-04T10:57:48.386Z,23.30
2022-08-04T11:00:58.765Z,23.30
2022-08-04T11:06:37.558Z,23.50
2022-08-04T11:07:11.865Z,23.40
2022-08-04T11:22:23.985Z,23.90
2022-08-04T11:25:14.731Z,23.80
2022-08-04T11:25:51.958Z,23.90
2022-08-04T11:26:38.150Z,23.90
2022-08-04T11:27:23.903Z,23.70
2022-08-04T11:28:18.033Z,23.80
2022-08-04T11:29:12.154Z,23.70
2022-08-04T11:30:04.953Z,26.60
2022-08-04T11:31:26.809Z,24.40
2022-08-04T11:32:02.535Z,23.70
2022-08-04T11:32:44.045Z,23.80
2022-08-04T11:33:21.804Z,23.80
2022-08-04T11:34:19.247Z,23.90
2022-08-04T11:38:11.640Z,24.00
2022-08-04T11:39:38.147Z,24.20
2022-08-04T12:06:21.794Z,24.40
2022-08-04T12:07:21.380Z,24.40
2022-08-04T12:25:08.577Z,24.80
2022-08-04T12:44:32.758Z,25.10
2022-08-04T13:48:14.968Z,25.60
2022-08-04T13:49:23.478Z,25.70
2022-08-04T13:50:18.000Z,25.50
2022-08-04T13:50:53.322Z,25.40
2022-08-04T13:51:57.598Z,25.50
2022-08-04T13:52:26.295Z,25.50
2022-08-04T13:53:01.176Z,25.50
2022-08-04T13:54:06.536Z,25.40
2022-08-04T13:54:43.512Z,25.50
2022-08-04T14:12:38.320Z,25.40
2022-08-04T14:15:28.430Z,25.60
2022-08-04T14:17:29.974Z,25.60
2022-08-04T14:55:21.802Z,25.70
2022-08-04T15:42:43.905Z,25.30
2022-08-04T16:10:35.239Z,25.60
2022-08-04T16:11:07.194Z,25.60
2022-08-04T16:11:40.526Z,25.60
2022-08-04T16:12:54.052Z,25.60
2022-08-04T16:13:26.482Z,25.50
2022-08-04T16:14:05.289Z,25.50
2022-08-04T16:14:37.242Z,25.40
2022-08-04T16:15:37.022Z,25.40
2022-08-04T16:16:09.005Z,25.40
2022-08-04T16:16:45.095Z,25.40
2022-08-04T16:17:19.052Z,25.40
2022-08-04T16:17:53.768Z,25.40
2022-08-04T16:18:27.349Z,25.40
2022-08-04T16:19:13.638Z,25.40
2022-08-04T16:19:54.978Z,25.40
2022-08-04T16:20:27.938Z,25.40
2022-08-04T16:21:04.568Z,25.40
2022-08-04T16:21:51.173Z,25.40
2022-08-04T16:22:38.420Z,25.40
2022-08-04T16:23:52.526Z,25.40
2022-08-04T16:24:27.667Z,25.40
2022-08-04T16:25:00.718Z,25.40
2022-08-04T16:25:48.338Z,25.40
2022-08-04T16:26:45.267Z,25.40
2022-08-04T16:27:42.887Z,25.40
2022-08-04T16:28:43.865Z,25.30
2022-08-04T16:29:37.890Z,25.30
2022-08-04T16:30:14.446Z,25.30
2022-08-04T16:30:46.516Z,25.30
2022-08-04T16:31:18.334Z,25.30
2022-08-04T16:32:05.745Z,25.30
2022-08-04T16:32:43.603Z,25.30
2022-08-04T16:33:15.471Z,25.30
2022-08-04T16:33:48.049Z,25.30
2022-08-04T16:34:53.685Z,25.30
2022-08-04T16:35:28.530Z,25.30
2022-08-04T16:36:07.980Z,25.30
2022-08-04T16:37:01.212Z,25.30
2022-08-04T16:37:34.818Z,25.30
2022-08-04T16:38:14.765Z,25.30
2022-08-04T16:39:03.740Z,25.30
2022-08-04T16:39:51.314Z,25.30
2022-08-04T16:40:23.618Z,25.30
2022-08-04T16:41:00.106Z,25.30
2022-08-04T16:41:42.668Z,25.30
2022-08-04T16:42:32.718Z,25.30
2022-08-04T16:43:11.366Z,25.30
2022-08-04T16:43:45.156Z,25.20
2022-08-04T16:44:52.314Z,25.30
2022-08-04T16:45:38.714Z,25.30
2022-08-04T16:46:19.917Z,25.30
2022-08-04T16:47:21.687Z,25.30
2022-08-04T16:47:48.451Z,24.00
2022-08-04T16:48:27.777Z,25.20
2022-08-04T16:49:06.830Z,25.20
2022-08-04T16:49:49.532Z,25.20
2022-08-04T16:50:24.641Z,25.20
2022-08-04T16:51:04.618Z,25.20
2022-08-04T16:51:37.265Z,25.20
2022-08-04T16:52:13.351Z,25.20
2022-08-04T16:52:48.394Z,25.20
2022-08-04T16:53:52.409Z,25.20
2022-08-04T16:54:14.631Z,25.20
2022-08-04T16:54:46.586Z,25.20
2022-08-04T16:55:20.487Z,25.20
2022-08-04T16:55:58.098Z,25.20
2022-08-04T16:56:33.551Z,25.20
2022-08-04T16:57:10.251Z,25.20
2022-08-04T16:57:45.878Z,25.20
2022-08-04T16:58:25.546Z,25.20
2022-08-04T16:58:57.597Z,25.20
2022-08-04T16:59:29.462Z,25.20
2022-08-04T17:00:01.533Z,25.20
2022-08-04T17:00:36.485Z,25.20
2022-08-04T17:01:08.511Z,25.20
2022-08-04T17:01:50.362Z,25.20
2022-08-04T17:02:26.619Z,25.20
2022-08-04T17:03:03.085Z,25.20
2022-08-04T17:03:41.218Z,25.20
2022-08-04T17:04:13.547Z,25.20
2022-08-04T17:04:45.407Z,25.20
2022-08-04T17:05:39.632Z,25.20
2022-08-04T17:06:14.834Z,25.20
2022-08-04T17:06:46.778Z,25.60
2022-08-04T17:07:18.580Z,25.20
2022-08-04T17:08:28.044Z,25.20
2022-08-04T17:08:49.714Z,26.80
2022-08-04T17:09:24.432Z,28.00
2022-08-04T17:10:00.093Z,25.20
2022-08-04T17:10:41.535Z,25.20
2022-08-04T17:11:15.567Z,25.10
2022-08-04T17:11:48.475Z,25.10
2022-08-04T17:12:21.011Z,25.20
2022-08-04T17:13:08.403Z,25.10
2022-08-04T17:14:03.802Z,25.10
2022-08-04T17:14:37.076Z,25.10
2022-08-04T17:15:23.111Z,25.10
2022-08-04T17:16:02.132Z,25.10
2022-08-04T17:16:37.350Z,25.10
2022-08-04T17:17:10.380Z,25.10
2022-08-04T17:18:05.825Z,26.70
2022-08-04T17:18:42.919Z,25.10
2022-08-04T17:19:23.933Z,25.10
2022-08-04T17:19:58.456Z,25.10
2022-08-04T17:20:58.987Z,25.10
2022-08-04T17:21:28.295Z,25.10
2022-08-04T17:22:08.658Z,25.10
2022-08-04T17:22:43.215Z,25.10
2022-08-04T17:24:15.619Z,25.10
2022-08-04T17:24:38.248Z,25.10
2022-08-04T17:25:10.413Z,25.10
2022-08-04T17:25:54.857Z,25.00
2022-08-04T17:26:40.360Z,25.00
2022-08-04T17:28:06.175Z,25.10
2022-08-04T17:28:19.520Z,24.70
2022-08-04T17:28:58.226Z,25.00
2022-08-04T17:29:43.078Z,25.00
2022-08-04T17:30:27.430Z,25.00
2022-08-04T17:30:59.985Z,25.00
2022-08-04T17:31:38.036Z,25.00
2022-08-04T17:32:14.698Z,25.00
2022-08-04T17:32:46.527Z,25.00
2022-08-04T17:33:25.808Z,25.00
2022-08-04T17:34:21.108Z,25.00
2022-08-04T17:34:55.200Z,24.90
2022-08-04T17:35:27.126Z,24.90
2022-08-04T17:36:12.685Z,25.00
2022-08-04T17:36:44.754Z,25.00
2022-08-04T17:37:40.906Z,24.90
2022-08-04T17:38:10.262Z,24.90
2022-08-04T17:38:51.684Z,24.90
2022-08-04T17:39:25.273Z,24.90
2022-08-04T17:40:10.346Z,24.90
2022-08-04T17:40:53.246Z,24.90
2022-08-04T17:41:38.790Z,24.90
2022-08-04T17:42:11.017Z,24.90
2022-08-04T17:42:45.296Z,24.90
2022-08-04T17:44:03.874Z,24.90
2022-08-04T17:44:09.934Z,24.90
2022-08-04T17:44:43.338Z,24.90
2022-08-04T17:45:50.915Z,24.90
2022-08-04T17:46:29.141Z,24.90
2022-08-04T17:47:12.647Z,24.90
2022-08-04T17:47:52.474Z,24.90
2022-08-04T17:48:25.208Z,24.80
2022-08-04T17:48:59.206Z,24.80
2022-08-04T17:49:31.274Z,24.90
2022-08-04T17:50:28.271Z,24.90
2022-08-04T17:51:16.824Z,24.90
2022-08-04T17:52:06.055Z,24.80
2022-08-04T17:52:45.153Z,24.90
2022-08-04T17:53:17.413Z,24.80
2022-08-04T17:54:02.618Z,24.80
2022-08-04T17:54:39.147Z,24.80
2022-08-04T17:55:16.618Z,24.80
2022-08-04T17:55:52.510Z,24.80
2022-08-04T17:56:31.438Z,24.80
2022-08-04T17:57:21.233Z,24.80
2022-08-04T17:58:13.670Z,24.80
2022-08-04T17:59:07.425Z,24.80
2022-08-04T17:59:55.866Z,24.80
2022-08-04T18:00:35.390Z,24.80
2022-08-04T18:02:00.958Z,24.80
2022-08-04T18:02:37.723Z,24.80
2022-08-04T18:03:23.218Z,24.80
2022-08-04T18:03:58.082Z,24.80
2022-08-04T18:04:33.232Z,24.80
2022-08-04T18:05:11.457Z,21.30
2022-08-04T18:06:01.585Z,24.80
2022-08-04T18:06:34.449Z,24.80
2022-08-04T18:08:38.030Z,24.80
2022-08-04T18:08:45.869Z,24.80
2022-08-04T18:09:22.916Z,24.70
2022-08-04T18:10:54.781Z,24.70
2022-08-04T18:11:29.737Z,24.70
2022-08-04T18:12:30.062Z,24.70
2022-08-04T18:13:14.259Z,24.70
2022-08-04T18:13:53.173Z,24.70
2022-08-04T18:14:28.799Z,24.70
2022-08-04T18:15:10.832Z,24.70
2022-08-04T18:15:46.305Z,24.70
2022-08-04T18:16:22.550Z,24.70
2022-08-04T18:16:55.835Z,24.60
2022-08-04T18:18:20.002Z,24.60
2022-08-04T18:18:35.220Z,24.60
2022-08-04T18:19:14.676Z,24.60
2022-08-04T18:19:52.816Z,24.60
2022-08-04T18:20:27.779Z,24.60
2022-08-04T18:21:02.787Z,24.60
2022-08-04T18:21:46.782Z,24.60
2022-08-04T18:22:28.825Z,24.60
2022-08-04T18:23:00.871Z,24.60
2022-08-04T18:23:33.450Z,24.60
2022-08-04T18:24:05.690Z,24.60
2022-08-04T18:24:56.055Z,24.60
2022-08-04T18:25:51.205Z,24.50
2022-08-04T18:26:21.885Z,24.60
2022-08-04T18:26:55.735Z,24.50
2022-08-04T18:27:31.689Z,24.60
2022-08-04T18:28:13.848Z,24.50
2022-08-04T18:28:46.884Z,24.60
2022-08-04T18:29:31.043Z,24.50
2022-08-04T18:30:32.549Z,24.50
2022-08-04T18:31:02.996Z,24.50
2022-08-04T18:31:37.473Z,24.50
2022-08-04T18:32:10.307Z,24.50
2022-08-04T18:33:24.566Z,24.50
2022-08-04T18:33:39.846Z,24.50
2022-08-04T18:34:15.407Z,24.50
2022-08-04T18:34:55.140Z,24.50
2022-08-04T18:36:31.322Z,24.50
2022-08-04T18:36:33.469Z,24.50
2022-08-04T18:37:32.208Z,24.40
2022-08-04T18:38:06.563Z,24.40
2022-08-04T18:38:58.170Z,24.40
2022-08-04T18:40:11.234Z,24.40
2022-08-04T18:40:26.476Z,24.40
2022-08-04T18:41:03.147Z,24.40
2022-08-04T18:42:01.649Z,24.40
2022-08-04T18:42:37.407Z,24.40
2022-08-04T18:43:14.216Z,24.40
2022-08-04T18:43:55.816Z,24.40
2022-08-04T18:44:29.316Z,24.40
2022-08-04T18:45:01.706Z,24.30
2022-08-04T18:45:37.328Z,24.40
2022-08-04T18:46:14.317Z,24.30
2022-08-04T18:46:52.712Z,24.30
2022-08-04T18:47:29.949Z,24.30
2022-08-04T18:48:04.350Z,24.30
2022-08-04T18:48:52.590Z,24.30
2022-08-04T18:50:59.020Z,24.30
2022-08-04T18:50:59.325Z,24.30
2022-08-04T18:51:23.088Z,24.30
2022-08-04T18:51:56.861Z,24.30
2022-08-04T18:52:29.138Z,24.30
2022-08-04T18:53:01.009Z,24.30
2022-08-04T18:53:34.843Z,24.30
2022-08-04T18:54:08.320Z,24.30
2022-08-04T18:54:41.931Z,24.30
2022-08-04T18:55:55.433Z,23.80
2022-08-04T18:56:20.108Z,24.30
2022-08-04T18:57:32.226Z,24.30
2022-08-04T18:57:58.916Z,24.20
2022-08-04T18:58:32.122Z,24.20
2022-08-04T18:59:10.202Z,24.20
2022-08-04T18:59:42.468Z,24.20
2022-08-04T19:00:19.979Z,24.20
2022-08-04T19:00:52.147Z,24.20
2022-08-04T19:01:29.954Z,24.20
2022-08-04T19:02:17.883Z,24.20
2022-08-04T19:02:50.136Z,24.20
2022-08-04T19:03:23.217Z,24.10
2022-08-04T19:03:57.923Z,24.20
2022-08-04T19:04:33.076Z,24.10
2022-08-04T19:05:06.364Z,24.10
2022-08-04T19:05:41.654Z,24.10
2022-08-04T19:06:14.169Z,24.10
2022-08-04T19:06:47.761Z,24.10
2022-08-04T19:07:29.713Z,24.20
2022-08-04T19:08:32.495Z,24.10
2022-08-04T19:08:54.179Z,24.10
2022-08-04T19:09:27.014Z,24.10
2022-08-04T19:10:24.104Z,27.50
2022-08-04T19:11:00.247Z,24.00
2022-08-04T19:11:54.215Z,24.10
2022-08-04T19:12:28.394Z,24.10
2022-08-04T19:13:00.620Z,24.10
2022-08-04T19:13:34.924Z,24.30
2022-08-04T19:14:07.535Z,24.00
2022-08-04T19:14:45.234Z,24.00
2022-08-04T19:15:19.196Z,24.00
2022-08-04T19:15:51.477Z,22.20
2022-08-04T19:16:23.269Z,24.00
2022-08-04T19:16:55.037Z,26.40
2022-08-04T19:17:53.597Z,24.00
2022-08-04T19:18:20.983Z,23.90
2022-08-04T19:18:52.784Z,24.00
2022-08-04T19:19:47.320Z,24.00
2022-08-04T19:20:25.336Z,24.00
2022-08-04T19:20:59.401Z,23.90
2022-08-04T19:21:59.277Z,23.90
2022-08-04T19:22:35.882Z,23.90
2022-08-04T19:24:29.999Z,24.00
2022-08-04T19:24:31.838Z,23.90
2022-08-04T19:25:05.788Z,23.90
2022-08-04T19:25:58.913Z,23.90
2022-08-04T19:26:33.335Z,23.90
2022-08-04T19:27:08.245Z,22.60
2022-08-04T19:27:40.499Z,23.90
2022-08-04T19:28:17.659Z,23.90
2022-08-04T19:28:50.426Z,23.90
2022-08-04T19:29:22.400Z,23.90
2022-08-04T19:29:54.438Z,23.80
2022-08-04T19:30:26.282Z,23.80
2022-08-04T19:30:58.767Z,23.80
2022-08-04T19:31:34.294Z,23.80
2022-08-04T19:32:15.818Z,23.80
2022-08-04T19:32:48.459Z,23.80
2022-08-04T19:33:25.017Z,23.80
2022-08-04T19:34:04.524Z,23.80
2022-08-04T19:34:36.782Z,23.80
2022-08-04T19:35:10.960Z,23.70
2022-08-04T19:35:45.998Z,23.80
2022-08-04T19:36:28.441Z,22.70
2022-08-04T19:37:00.627Z,23.70
2022-08-04T19:37:57.179Z,23.70
2022-08-04T19:38:25.270Z,23.70
2022-08-04T19:39:01.308Z,23.70
2022-08-04T19:39:33.257Z,23.70
2022-08-04T19:40:13.013Z,23.80
2022-08-04T19:40:50.506Z,23.70
2022-08-04T19:41:26.787Z,23.70
2022-08-04T19:42:04.497Z,23.70
2022-08-04T19:42:40.246Z,23.70
2022-08-04T19:43:14.490Z,23.70
2022-08-04T19:43:47.570Z,23.70
2022-08-04T19:44:19.611Z,23.70
2022-08-04T19:44:55.551Z,23.70
2022-08-04T19:45:44.554Z,23.70
2022-08-04T19:46:17.687Z,23.70
2022-08-04T19:46:49.715Z,23.70
2022-08-04T19:48:18.952Z,23.70
2022-08-04T19:48:21.130Z,23.70
2022-08-04T19:49:00.267Z,23.70
2022-08-04T19:50:04.023Z,23.60
2022-08-04T19:50:25.107Z,24.10
2022-08-04T19:50:57.069Z,23.60
2022-08-04T19:51:32.781Z,23.60
2022-08-04T19:52:04.841Z,23.70
2022-08-04T19:52:36.715Z,23.60
2022-08-04T19:53:18.691Z,23.60
2022-08-04T19:53:54.817Z,23.60
2022-08-04T19:54:32.176Z,23.60
2022-08-04T19:55:09.799Z,23.60
2022-08-04T19:55:43.457Z,23.60
2022-08-04T19:56:21.883Z,23.60
2022-08-04T19:56:57.488Z,23.60
2022-08-04T19:57:35.297Z,23.60
2022-08-04T19:58:08.994Z,23.60
2022-08-04T19:58:42.085Z,23.50
2022-08-04T19:59:19.572Z,23.30
2022-08-04T19:59:51.461Z,23.50
2022-08-04T20:00:33.562Z,23.60
2022-08-04T20:01:28.645Z,23.50
2022-08-04T20:01:58.287Z,23.50
2022-08-04T20:02:31.531Z,23.50
2022-08-04T20:03:11.400Z,23.50
2022-08-04T20:04:35.875Z,23.50
2022-08-04T20:05:08.800Z,23.50
2022-08-04T20:05:54.386Z,23.50
2022-08-04T20:06:27.403Z,23.50
2022-08-04T20:07:01.787Z,23.40
2022-08-04T20:07:34.119Z,23.40
2022-08-04T20:08:06.044Z,23.50
2022-08-04T20:08:38.901Z,23.50
2022-08-04T20:09:25.717Z,23.40
2022-08-04T20:09:58.823Z,23.40
2022-08-04T20:10:37.535Z,23.40
2022-08-04T20:11:25.006Z,23.40
2022-08-04T20:11:59.002Z,23.40
2022-08-04T20:12:30.870Z,23.40
2022-08-04T20:13:02.845Z,23.40
2022-08-04T20:13:42.390Z,23.40
2022-08-04T20:14:14.158Z,26.60
2022-08-04T20:14:46.507Z,23.40
2022-08-04T20:15:20.108Z,23.40
2022-08-04T20:15:57.637Z,23.40
2022-08-04T20:16:30.924Z,23.30
2022-08-04T20:17:10.093Z,23.30
2022-08-04T20:18:06.918Z,23.30
2022-08-04T20:19:27.038Z,23.30
2022-08-04T20:19:59.109Z,23.30
2022-08-04T20:20:31.232Z,23.30
2022-08-04T20:21:04.071Z,23.30
2022-08-04T20:21:56.141Z,23.30
2022-08-04T20:22:51.709Z,23.30
2022-08-04T20:23:28.644Z,23.30
2022-08-04T20:24:38.874Z,23.30
2022-08-04T20:25:18.373Z,20.50
2022-08-04T20:25:56.722Z,23.20
2022-08-04T20:26:28.523Z,23.20
2022-08-04T20:27:00.515Z,23.10
2022-08-04T20:27:51.613Z,23.20
2022-08-04T20:28:36.504Z,23.20
2022-08-04T20:29:09.307Z,23.10
2022-08-04T20:29:43.497Z,23.20
2022-08-04T20:30:20.699Z,23.10
2022-08-04T20:30:52.946Z,23.10
2022-08-04T20:31:31.480Z,23.10
2022-08-04T20:32:05.573Z,23.10
2022-08-04T20:32:40.751Z,23.10
2022-08-04T20:33:13.898Z,23.10
2022-08-04T20:33:53.370Z,23.10
2022-08-04T20:34:26.780Z,23.10
2022-08-04T20:34:59.285Z,23.10
2022-08-04T20:35:32.457Z,23.10
2022-08-04T20:36:24.266Z,22.70
2022-08-04T20:36:56.050Z,23.00
2022-08-04T20:37:56.886Z,23.00
2022-08-04T20:38:33.010Z,24.10
2022-08-04T20:39:06.106Z,23.00
2022-08-04T20:39:41.800Z,23.00
2022-08-04T20:40:14.691Z,23.00
2022-08-04T20:40:47.548Z,23.00
2022-08-04T20:41:22.501Z,23.00
2022-08-04T20:41:54.359Z,23.00
2022-08-04T20:42:34.103Z,22.90
2022-08-04T20:43:06.386Z,23.00
2022-08-04T20:43:40.747Z,22.90
2022-08-04T20:44:12.959Z,22.90
2022-08-04T20:44:46.957Z,22.90
2022-08-04T20:45:22.811Z,22.90
2022-08-04T20:45:57.214Z,22.90
2022-08-04T20:46:31.284Z,22.80
2022-08-04T20:47:03.465Z,22.80
2022-08-04T20:47:39.515Z,25.80
2022-08-04T20:48:13.548Z,22.80